createdAt,value
2019-02-06T17:02:35.807Z,24.12
2019-02-06T17:05:31.254Z,31.00
2019-02-06T17:08:31.846Z,74.95
2019-02-06T17:11:15.567Z,61.90
2019-02-06T17:13:58.922Z,33.80
2019-02-06T17:16:49.049Z,29.00
2019-02-06T17:19:32.619Z,27.20
2019-02-06T17:25:49.568Z,40.25
2019-02-06T17:28:36.512Z,27.17
2019-02-06T17:31:33.473Z,23.95
2019-02-06T17:34:28.973Z,27.00
2019-02-06T17:37:19.019Z,53.20
2019-02-06T17:40:02.382Z,32.73
2019-02-06T17:42:45.490Z,22.22
2019-02-06T17:45:43.531Z,24.75
2019-02-06T17:48:45.562Z,25.75
2019-02-06T17:51:33.217Z,33.85
2019-02-06T17:54:27.165Z,36.77
2019-02-06T17:56:55.428Z,28.75
2019-02-06T17:59:23.662Z,28.52
2019-02-06T18:01:52.109Z,33.85
2019-02-06T18:04:20.417Z,30.20
2019-02-06T18:06:48.725Z,31.52
2019-02-06T18:09:17.074Z,33.95
2019-02-06T18:11:45.960Z,31.52
2019-02-06T18:14:14.289Z,34.45
2019-02-06T18:16:42.540Z,35.00
2019-02-06T18:19:10.813Z,34.18
2019-02-06T18:21:39.080Z,33.73
2019-02-06T18:24:07.914Z,33.65
2019-02-06T18:26:39.496Z,39.13
2019-02-06T18:29:07.860Z,34.90
2019-02-06T18:31:37.818Z,36.55
2019-02-06T18:34:07.215Z,40.45
2019-02-06T18:36:35.561Z,42.60
2019-02-06T18:39:06.579Z,33.02
2019-02-06T18:41:35.105Z,27.75
2019-02-06T18:44:03.385Z,45.35
2019-02-06T18:46:31.863Z,45.73
2019-02-06T18:49:00.198Z,72.78
2019-02-06T18:51:28.462Z,104.72
2019-02-06T18:53:57.128Z,54.25
2019-02-06T18:56:25.470Z,86.67
2019-02-06T18:58:53.907Z,80.65
2019-02-06T19:01:22.574Z,80.85
2019-02-06T19:03:51.428Z,48.10
2019-02-06T19:06:19.885Z,44.33
2019-02-06T19:08:48.238Z,41.65
2019-02-06T19:11:16.588Z,38.83
2019-02-06T19:13:44.935Z,38.30
2019-02-06T19:16:13.270Z,33.28
2019-02-06T19:18:41.567Z,43.17
2019-02-06T19:21:09.939Z,37.58
2019-02-06T19:23:38.648Z,38.70
2019-02-06T19:26:06.991Z,45.03
2019-02-06T19:28:35.382Z,37.23
2019-02-06T19:31:04.074Z,47.80
2019-02-06T19:33:32.433Z,39.42
2019-02-06T19:36:00.845Z,35.43
2019-02-06T19:38:29.211Z,38.05
2019-02-06T19:40:57.810Z,32.42
2019-02-06T19:43:26.098Z,37.30
2019-02-06T19:45:54.470Z,53.00
2019-02-06T19:48:22.797Z,45.43
2019-02-06T19:50:51.246Z,42.95
2019-02-06T19:53:19.591Z,42.67
2019-02-06T19:55:49.582Z,43.63
2019-02-06T19:58:17.935Z,33.95
2019-02-06T20:00:46.717Z,44.03
2019-02-06T20:03:15.054Z,39.15
2019-02-06T20:05:43.350Z,37.08
2019-02-06T20:08:14.140Z,34.23
2019-02-06T20:10:47.590Z,39.20
2019-02-06T20:13:15.917Z,47.70
2019-02-06T20:15:44.408Z,40.17
2019-02-06T20:18:12.949Z,38.20
2019-02-06T20:20:41.322Z,39.23
2019-02-06T20:23:09.692Z,41.48
2019-02-06T20:25:38.012Z,39.55
2019-02-06T20:28:06.289Z,34.20
2019-02-06T20:30:34.622Z,38.30
2019-02-06T20:33:03.059Z,36.23
2019-02-06T20:35:31.381Z,33.78
2019-02-06T20:38:00.009Z,34.63
